sensor_id;sensor_type;location;lat;lon;timestamp;P1;durP1;ratioP1;P2;durP2;ratioP2
57752;SDS011;43583;53.132;6.574;2022-12-29T00:01:48;2.63;;;2.13;;
57752;SDS011;43583;53.132;6.574;2022-12-29T00:04:14;3.85;;;1.98;;
57752;SDS011;43583;53.132;6.574;2022-12-29T00:06:40;3.53;;;2.90;;
57752;SDS011;43583;53.132;6.574;2022-12-29T00:09:06;3.17;;;1.80;;
57752;SDS011;43583;53.132;6.574;2022-12-29T00:11:33;2.75;;;2.47;;
57752;SDS011;43583;53.132;6.574;2022-12-29T00:13:58;2.55;;;2.05;;
57752;SDS011;43583;53.132;6.574;2022-12-29T00:16:43;2.45;;;2.22;;
57752;SDS011;43583;53.132;6.574;2022-12-29T00:19:10;2.88;;;1.90;;
57752;SDS011;43583;53.132;6.574;2022-12-29T00:21:56;2.40;;;1.83;;
57752;SDS011;43583;53.132;6.574;2022-12-29T00:24:42;2.90;;;2.22;;
57752;SDS011;43583;53.132;6.574;2022-12-29T00:27:28;2.58;;;2.08;;
57752;SDS011;43583;53.132;6.574;2022-12-29T00:30:13;2.53;;;2.22;;
57752;SDS011;43583;53.132;6.574;2022-12-29T00:33:16;5.25;;;2.00;;
57752;SDS011;43583;53.132;6.574;2022-12-29T00:36:04;3.28;;;2.50;;
57752;SDS011;43583;53.132;6.574;2022-12-29T00:38:33;3.03;;;2.72;;
57752;SDS011;43583;53.132;6.574;2022-12-29T00:41:21;2.63;;;2.42;;
57752;SDS011;43583;53.132;6.574;2022-12-29T00:44:05;2.15;;;1.75;;
57752;SDS011;43583;53.132;6.574;2022-12-29T00:46:35;2.58;;;2.28;;
57752;SDS011;43583;53.132;6.574;2022-12-29T00:49:02;2.70;;;2.30;;
57752;SDS011;43583;53.132;6.574;2022-12-29T00:51:46;4.28;;;2.58;;
57752;SDS011;43583;53.132;6.574;2022-12-29T00:54:13;3.67;;;1.95;;
57752;SDS011;43583;53.132;6.574;2022-12-29T00:56:39;1.92;;;1.63;;
57752;SDS011;43583;53.132;6.574;2022-12-29T00:59:08;2.67;;;2.13;;
57752;SDS011;43583;53.132;6.574;2022-12-29T01:01:35;4.05;;;2.22;;
57752;SDS011;43583;53.132;6.574;2022-12-29T01:04:02;4.07;;;2.30;;
57752;SDS011;43583;53.132;6.574;2022-12-29T01:06:28;3.05;;;2.17;;
57752;SDS011;43583;53.132;6.574;2022-12-29T01:08:53;6.47;;;3.03;;
57752;SDS011;43583;53.132;6.574;2022-12-29T01:11:38;3.78;;;2.25;;
57752;SDS011;43583;53.132;6.574;2022-12-29T01:14:04;3.47;;;2.33;;
57752;SDS011;43583;53.132;6.574;2022-12-29T01:16:30;4.00;;;2.65;;
57752;SDS011;43583;53.132;6.574;2022-12-29T01:18:55;4.13;;;2.42;;
57752;SDS011;43583;53.132;6.574;2022-12-29T01:21:21;4.03;;;2.47;;
57752;SDS011;43583;53.132;6.574;2022-12-29T01:23:47;3.75;;;2.63;;
57752;SDS011;43583;53.132;6.574;2022-12-29T01:26:13;4.20;;;2.42;;
57752;SDS011;43583;53.132;6.574;2022-12-29T01:28:40;4.22;;;2.08;;
57752;SDS011;43583;53.132;6.574;2022-12-29T01:31:07;3.08;;;2.42;;
57752;SDS011;43583;53.132;6.574;2022-12-29T01:33:33;2.78;;;2.30;;
57752;SDS011;43583;53.132;6.574;2022-12-29T01:36:02;5.25;;;2.20;;
57752;SDS011;43583;53.132;6.574;2022-12-29T01:38:29;3.45;;;1.73;;
57752;SDS011;43583;53.132;6.574;2022-12-29T01:40:55;2.33;;;1.50;;
57752;SDS011;43583;53.132;6.574;2022-12-29T01:43:20;3.80;;;1.80;;
57752;SDS011;43583;53.132;6.574;2022-12-29T01:45:55;4.57;;;2.05;;
57752;SDS011;43583;53.132;6.574;2022-12-29T01:48:20;7.57;;;2.03;;
57752;SDS011;43583;53.132;6.574;2022-12-29T01:50:49;2.95;;;1.70;;
57752;SDS011;43583;53.132;6.574;2022-12-29T01:53:21;2.67;;;1.65;;
57752;SDS011;43583;53.132;6.574;2022-12-29T01:55:54;3.22;;;1.50;;
57752;SDS011;43583;53.132;6.574;2022-12-29T01:58:24;1.83;;;1.35;;
57752;SDS011;43583;53.132;6.574;2022-12-29T02:00:55;4.50;;;1.70;;
57752;SDS011;43583;53.132;6.574;2022-12-29T02:03:21;1.33;;;1.10;;
57752;SDS011;43583;53.132;6.574;2022-12-29T02:08:40;2.80;;;1.38;;
57752;SDS011;43583;53.132;6.574;2022-12-29T02:11:06;2.38;;;1.00;;
57752;SDS011;43583;53.132;6.574;2022-12-29T02:13:32;2.35;;;1.08;;
57752;SDS011;43583;53.132;6.574;2022-12-29T02:18:55;2.20;;;1.00;;
57752;SDS011;43583;53.132;6.574;2022-12-29T02:22:07;1.90;;;1.05;;
57752;SDS011;43583;53.132;6.574;2022-12-29T02:25:00;1.50;;;1.00;;
57752;SDS011;43583;53.132;6.574;2022-12-29T02:27:36;3.03;;;1.10;;
57752;SDS011;43583;53.132;6.574;2022-12-29T02:30:40;3.20;;;1.30;;
57752;SDS011;43583;53.132;6.574;2022-12-29T02:36:10;1.73;;;0.75;;
57752;SDS011;43583;53.132;6.574;2022-12-29T02:41:19;2.95;;;1.13;;
57752;SDS011;43583;53.132;6.574;2022-12-29T02:47:38;1.25;;;0.77;;
57752;SDS011;43583;53.132;6.574;2022-12-29T02:50:20;3.60;;;0.95;;
57752;SDS011;43583;53.132;6.574;2022-12-29T02:52:51;1.17;;;0.50;;
57752;SDS011;43583;53.132;6.574;2022-12-29T02:55:30;2.75;;;0.85;;
57752;SDS011;43583;53.132;6.574;2022-12-29T03:12:30;1.45;;;0.60;;
57752;SDS011;43583;53.132;6.574;2022-12-29T03:14:44;0.93;;;0.50;;
57752;SDS011;43583;53.132;6.574;2022-12-29T03:17:51;1.33;;;0.30;;
57752;SDS011;43583;53.132;6.574;2022-12-29T03:20:26;0.80;;;0.30;;
57752;SDS011;43583;53.132;6.574;2022-12-29T03:23:00;1.15;;;0.40;;
57752;SDS011;43583;53.132;6.574;2022-12-29T03:25:29;0.88;;;0.60;;
57752;SDS011;43583;53.132;6.574;2022-12-29T03:27:58;2.10;;;0.30;;
57752;SDS011;43583;53.132;6.574;2022-12-29T03:30:29;2.78;;;0.40;;
57752;SDS011;43583;53.132;6.574;2022-12-29T03:32:58;2.28;;;0.20;;
57752;SDS011;43583;53.132;6.574;2022-12-29T03:35:27;1.92;;;0.20;;
57752;SDS011;43583;53.132;6.574;2022-12-29T03:38:05;1.58;;;0.30;;
57752;SDS011;43583;53.132;6.574;2022-12-29T03:40:38;1.55;;;0.15;;
57752;SDS011;43583;53.132;6.574;2022-12-29T03:43:07;2.38;;;0.20;;
57752;SDS011;43583;53.132;6.574;2022-12-29T03:45:33;2.05;;;0.20;;
57752;SDS011;43583;53.132;6.574;2022-12-29T03:47:59;2.50;;;0.30;;
57752;SDS011;43583;53.132;6.574;2022-12-29T03:50:25;1.60;;;0.73;;
57752;SDS011;43583;53.132;6.574;2022-12-29T03:52:50;1.83;;;0.28;;
57752;SDS011;43583;53.132;6.574;2022-12-29T03:55:16;0.85;;;0.40;;
57752;SDS011;43583;53.132;6.574;2022-12-29T03:57:41;0.70;;;0.20;;
57752;SDS011;43583;53.132;6.574;2022-12-29T04:00:07;2.33;;;0.50;;
57752;SDS011;43583;53.132;6.574;2022-12-29T04:02:33;0.98;;;0.20;;
57752;SDS011;43583;53.132;6.574;2022-12-29T04:04:58;0.73;;;0.10;;
57752;SDS011;43583;53.132;6.574;2022-12-29T04:07:24;0.75;;;0.20;;
57752;SDS011;43583;53.132;6.574;2022-12-29T04:09:49;2.38;;;0.40;;
57752;SDS011;43583;53.132;6.574;2022-12-29T04:12:15;2.78;;;0.30;;
57752;SDS011;43583;53.132;6.574;2022-12-29T04:14:41;1.65;;;0.20;;
57752;SDS011;43583;53.132;6.574;2022-12-29T04:17:07;1.42;;;0.20;;
57752;SDS011;43583;53.132;6.574;2022-12-29T04:19:32;1.00;;;0.20;;
57752;SDS011;43583;53.132;6.574;2022-12-29T04:21:58;2.13;;;0.50;;
57752;SDS011;43583;53.132;6.574;2022-12-29T04:24:23;0.65;;;0.30;;
57752;SDS011;43583;53.132;6.574;2022-12-29T04:26:49;1.20;;;0.20;;
57752;SDS011;43583;53.132;6.574;2022-12-29T04:29:15;5.05;;;0.20;;
57752;SDS011;43583;53.132;6.574;2022-12-29T04:31:40;2.00;;;0.82;;
57752;SDS011;43583;53.132;6.574;2022-12-29T04:34:06;3.33;;;0.22;;
57752;SDS011;43583;53.132;6.574;2022-12-29T04:36:32;5.53;;;0.55;;
57752;SDS011;43583;53.132;6.574;2022-12-29T04:38:57;0.47;;;0.10;;
57752;SDS011;43583;53.132;6.574;2022-12-29T04:41:23;2.10;;;0.20;;
57752;SDS011;43583;53.132;6.574;2022-12-29T04:43:49;1.58;;;0.45;;
57752;SDS011;43583;53.132;6.574;2022-12-29T04:46:14;1.40;;;0.10;;
57752;SDS011;43583;53.132;6.574;2022-12-29T04:48:40;2.92;;;0.20;;
57752;SDS011;43583;53.132;6.574;2022-12-29T04:51:06;2.15;;;0.10;;
57752;SDS011;43583;53.132;6.574;2022-12-29T04:53:31;2.63;;;0.20;;
57752;SDS011;43583;53.132;6.574;2022-12-29T04:55:57;5.13;;;0.10;;
57752;SDS011;43583;53.132;6.574;2022-12-29T04:58:22;3.22;;;0.45;;
57752;SDS011;43583;53.132;6.574;2022-12-29T05:00:48;2.83;;;0.22;;
57752;SDS011;43583;53.132;6.574;2022-12-29T05:03:14;2.42;;;0.15;;
57752;SDS011;43583;53.132;6.574;2022-12-29T05:05:40;2.67;;;0.20;;
57752;SDS011;43583;53.132;6.574;2022-12-29T05:08:06;4.45;;;0.20;;
57752;SDS011;43583;53.132;6.574;2022-12-29T05:10:31;1.65;;;0.10;;
57752;SDS011;43583;53.132;6.574;2022-12-29T05:12:57;3.58;;;0.60;;
57752;SDS011;43583;53.132;6.574;2022-12-29T05:15:23;2.72;;;0.20;;
57752;SDS011;43583;53.132;6.574;2022-12-29T05:17:48;3.90;;;0.43;;
57752;SDS011;43583;53.132;6.574;2022-12-29T05:20:14;5.07;;;0.20;;
57752;SDS011;43583;53.132;6.574;2022-12-29T05:22:40;2.58;;;0.50;;
57752;SDS011;43583;53.132;6.574;2022-12-29T05:25:05;2.60;;;0.10;;
57752;SDS011;43583;53.132;6.574;2022-12-29T05:27:31;4.95;;;0.10;;
57752;SDS011;43583;53.132;6.574;2022-12-29T05:29:57;4.95;;;0.45;;
57752;SDS011;43583;53.132;6.574;2022-12-29T05:32:22;2.13;;;0.20;;
57752;SDS011;43583;53.132;6.574;2022-12-29T05:34:48;4.40;;;0.50;;
57752;SDS011;43583;53.132;6.574;2022-12-29T05:37:13;1.35;;;0.15;;
57752;SDS011;43583;53.132;6.574;2022-12-29T05:39:39;5.20;;;0.30;;
57752;SDS011;43583;53.132;6.574;2022-12-29T05:42:04;7.15;;;0.30;;
57752;SDS011;43583;53.132;6.574;2022-12-29T05:44:30;2.72;;;0.28;;
57752;SDS011;43583;53.132;6.574;2022-12-29T05:46:55;3.42;;;0.20;;
57752;SDS011;43583;53.132;6.574;2022-12-29T05:49:21;7.72;;;0.30;;
57752;SDS011;43583;53.132;6.574;2022-12-29T05:51:47;2.83;;;0.50;;
57752;SDS011;43583;53.132;6.574;2022-12-29T05:54:12;4.57;;;0.43;;
57752;SDS011;43583;53.132;6.574;2022-12-29T05:56:38;3.47;;;0.20;;
57752;SDS011;43583;53.132;6.574;2022-12-29T05:59:03;7.50;;;0.30;;
57752;SDS011;43583;53.132;6.574;2022-12-29T06:01:29;5.75;;;0.20;;
57752;SDS011;43583;53.132;6.574;2022-12-29T06:03:54;3.25;;;0.57;;
57752;SDS011;43583;53.132;6.574;2022-12-29T06:06:20;4.80;;;0.20;;
57752;SDS011;43583;53.132;6.574;2022-12-29T06:08:46;5.38;;;0.60;;
57752;SDS011;43583;53.132;6.574;2022-12-29T06:11:11;7.57;;;0.47;;
57752;SDS011;43583;53.132;6.574;2022-12-29T06:13:37;3.60;;;0.10;;
57752;SDS011;43583;53.132;6.574;2022-12-29T06:16:03;4.45;;;0.25;;
57752;SDS011;43583;53.132;6.574;2022-12-29T06:18:28;8.35;;;0.52;;
57752;SDS011;43583;53.132;6.574;2022-12-29T06:20:54;4.65;;;0.50;;
57752;SDS011;43583;53.132;6.574;2022-12-29T06:23:28;2.50;;;0.30;;
57752;SDS011;43583;53.132;6.574;2022-12-29T06:25:53;3.42;;;0.30;;
57752;SDS011;43583;53.132;6.574;2022-12-29T06:28:19;0.85;;;0.10;;
57752;SDS011;43583;53.132;6.574;2022-12-29T06:30:45;3.33;;;0.40;;
57752;SDS011;43583;53.132;6.574;2022-12-29T06:33:11;4.50;;;0.17;;
57752;SDS011;43583;53.132;6.574;2022-12-29T06:35:37;4.72;;;0.50;;
57752;SDS011;43583;53.132;6.574;2022-12-29T06:38:03;8.27;;;0.50;;
57752;SDS011;43583;53.132;6.574;2022-12-29T06:40:29;11.85;;;1.02;;
57752;SDS011;43583;53.132;6.574;2022-12-29T06:42:54;4.88;;;0.50;;
57752;SDS011;43583;53.132;6.574;2022-12-29T06:45:20;7.90;;;0.22;;
57752;SDS011;43583;53.132;6.574;2022-12-29T06:47:46;7.38;;;0.20;;
57752;SDS011;43583;53.132;6.574;2022-12-29T06:50:11;5.40;;;0.35;;
57752;SDS011;43583;53.132;6.574;2022-12-29T06:52:37;6.13;;;0.85;;
57752;SDS011;43583;53.132;6.574;2022-12-29T06:55:03;6.03;;;0.95;;
57752;SDS011;43583;53.132;6.574;2022-12-29T06:57:29;4.65;;;0.95;;
57752;SDS011;43583;53.132;6.574;2022-12-29T06:59:54;9.70;;;0.80;;
57752;SDS011;43583;53.132;6.574;2022-12-29T07:02:22;6.00;;;0.40;;
57752;SDS011;43583;53.132;6.574;2022-12-29T07:04:50;6.82;;;0.40;;
57752;SDS011;43583;53.132;6.574;2022-12-29T07:07:17;11.18;;;1.08;;
57752;SDS011;43583;53.132;6.574;2022-12-29T07:09:43;7.40;;;0.45;;
57752;SDS011;43583;53.132;6.574;2022-12-29T07:12:08;6.05;;;1.13;;
57752;SDS011;43583;53.132;6.574;2022-12-29T07:14:34;5.78;;;0.28;;
57752;SDS011;43583;53.132;6.574;2022-12-29T07:17:01;6.63;;;0.38;;
57752;SDS011;43583;53.132;6.574;2022-12-29T07:19:27;3.55;;;0.57;;
57752;SDS011;43583;53.132;6.574;2022-12-29T07:21:54;9.18;;;0.70;;
57752;SDS011;43583;53.132;6.574;2022-12-29T07:24:19;2.92;;;0.35;;
57752;SDS011;43583;53.132;6.574;2022-12-29T07:26:45;9.63;;;0.63;;
57752;SDS011;43583;53.132;6.574;2022-12-29T07:29:10;5.45;;;0.88;;
57752;SDS011;43583;53.132;6.574;2022-12-29T07:31:36;3.65;;;0.63;;
57752;SDS011;43583;53.132;6.574;2022-12-29T07:34:01;6.47;;;0.30;;
57752;SDS011;43583;53.132;6.574;2022-12-29T07:36:27;7.85;;;0.40;;
57752;SDS011;43583;53.132;6.574;2022-12-29T07:38:53;3.60;;;0.93;;
57752;SDS011;43583;53.132;6.574;2022-12-29T07:41:18;8.25;;;0.40;;
57752;SDS011;43583;53.132;6.574;2022-12-29T07:43:46;5.82;;;0.55;;
57752;SDS011;43583;53.132;6.574;2022-12-29T07:46:13;5.07;;;0.38;;
57752;SDS011;43583;53.132;6.574;2022-12-29T07:48:39;6.00;;;0.30;;
57752;SDS011;43583;53.132;6.574;2022-12-29T07:51:04;7.18;;;0.40;;
57752;SDS011;43583;53.132;6.574;2022-12-29T07:53:31;7.35;;;0.32;;
57752;SDS011;43583;53.132;6.574;2022-12-29T07:55:57;3.65;;;1.05;;
57752;SDS011;43583;53.132;6.574;2022-12-29T07:58:22;4.20;;;0.30;;
57752;SDS011;43583;53.132;6.574;2022-12-29T08:00:52;5.25;;;0.47;;
57752;SDS011;43583;53.132;6.574;2022-12-29T08:03:18;8.25;;;0.77;;
57752;SDS011;43583;53.132;6.574;2022-12-29T08:05:44;5.88;;;0.32;;
57752;SDS011;43583;53.132;6.574;2022-12-29T08:08:09;5.10;;;0.75;;
57752;SDS011;43583;53.132;6.574;2022-12-29T08:10:35;4.82;;;0.63;;
57752;SDS011;43583;53.132;6.574;2022-12-29T08:13:01;6.70;;;1.13;;
57752;SDS011;43583;53.132;6.574;2022-12-29T08:15:26;3.92;;;0.45;;
57752;SDS011;43583;53.132;6.574;2022-12-29T08:17:52;6.85;;;0.43;;
57752;SDS011;43583;53.132;6.574;2022-12-29T08:20:17;6.18;;;0.47;;
57752;SDS011;43583;53.132;6.574;2022-12-29T08:22:43;7.43;;;1.17;;
57752;SDS011;43583;53.132;6.574;2022-12-29T08:25:08;9.77;;;0.68;;
57752;SDS011;43583;53.132;6.574;2022-12-29T08:27:34;6.75;;;0.63;;
57752;SDS011;43583;53.132;6.574;2022-12-29T08:29:59;6.30;;;0.30;;
57752;SDS011;43583;53.132;6.574;2022-12-29T08:32:25;6.43;;;1.05;;
57752;SDS011;43583;53.132;6.574;2022-12-29T08:34:53;3.97;;;0.25;;
57752;SDS011;43583;53.132;6.574;2022-12-29T08:37:19;10.98;;;1.48;;
57752;SDS011;43583;53.132;6.574;2022-12-29T08:39:44;7.22;;;0.68;;
57752;SDS011;43583;53.132;6.574;2022-12-29T08:42:10;8.43;;;1.88;;
57752;SDS011;43583;53.132;6.574;2022-12-29T08:44:35;7.47;;;1.17;;
57752;SDS011;43583;53.132;6.574;2022-12-29T08:47:01;5.80;;;0.50;;
57752;SDS011;43583;53.132;6.574;2022-12-29T08:49:27;12.75;;;0.63;;
57752;SDS011;43583;53.132;6.574;2022-12-29T08:51:52;5.82;;;0.45;;
57752;SDS011;43583;53.132;6.574;2022-12-29T08:54:18;6.57;;;0.40;;
57752;SDS011;43583;53.132;6.574;2022-12-29T08:56:44;3.83;;;0.65;;
57752;SDS011;43583;53.132;6.574;2022-12-29T08:59:09;8.55;;;0.70;;
57752;SDS011;43583;53.132;6.574;2022-12-29T09:01:35;6.57;;;0.30;;
57752;SDS011;43583;53.132;6.574;2022-12-29T09:04:03;7.55;;;0.57;;
57752;SDS011;43583;53.132;6.574;2022-12-29T09:06:29;10.05;;;2.70;;
57752;SDS011;43583;53.132;6.574;2022-12-29T09:08:54;7.70;;;0.85;;
57752;SDS011;43583;53.132;6.574;2022-12-29T09:11:22;16.30;;;0.95;;
57752;SDS011;43583;53.132;6.574;2022-12-29T09:13:49;6.47;;;0.85;;
57752;SDS011;43583;53.132;6.574;2022-12-29T09:16:15;14.02;;;1.30;;
57752;SDS011;43583;53.132;6.574;2022-12-29T09:18:41;9.75;;;0.70;;
57752;SDS011;43583;53.132;6.574;2022-12-29T09:21:09;7.70;;;0.40;;
57752;SDS011;43583;53.132;6.574;2022-12-29T09:23:35;9.50;;;0.82;;
57752;SDS011;43583;53.132;6.574;2022-12-29T09:26:01;9.50;;;1.20;;
57752;SDS011;43583;53.132;6.574;2022-12-29T09:28:29;7.78;;;0.40;;
57752;SDS011;43583;53.132;6.574;2022-12-29T09:30:55;10.55;;;2.25;;
57752;SDS011;43583;53.132;6.574;2022-12-29T09:33:21;9.95;;;0.60;;
57752;SDS011;43583;53.132;6.574;2022-12-29T09:35:55;8.70;;;0.45;;
57752;SDS011;43583;53.132;6.574;2022-12-29T09:38:22;5.32;;;0.30;;
57752;SDS011;43583;53.132;6.574;2022-12-29T09:40:50;12.73;;;0.82;;
57752;SDS011;43583;53.132;6.574;2022-12-29T09:48:31;11.95;;;1.40;;
57752;SDS011;43583;53.132;6.574;2022-12-29T09:51:00;6.63;;;0.95;;
57752;SDS011;43583;53.132;6.574;2022-12-29T09:53:35;11.80;;;0.40;;
57752;SDS011;43583;53.132;6.574;2022-12-29T09:56:05;7.82;;;0.35;;
57752;SDS011;43583;53.132;6.574;2022-12-29T09:58:41;6.15;;;0.50;;
57752;SDS011;43583;53.132;6.574;2022-12-29T10:01:32;9.02;;;1.40;;
57752;SDS011;43583;53.132;6.574;2022-12-29T10:04:03;10.13;;;0.75;;
57752;SDS011;43583;53.132;6.574;2022-12-29T10:11:46;5.03;;;0.30;;
57752;SDS011;43583;53.132;6.574;2022-12-29T10:14:38;4.70;;;0.80;;
57752;SDS011;43583;53.132;6.574;2022-12-29T10:17:40;6.65;;;1.00;;
57752;SDS011;43583;53.132;6.574;2022-12-29T10:25:34;3.97;;;0.20;;
57752;SDS011;43583;53.132;6.574;2022-12-29T10:28:04;12.13;;;0.73;;
57752;SDS011;43583;53.132;6.574;2022-12-29T10:30:40;8.50;;;0.32;;
57752;SDS011;43583;53.132;6.574;2022-12-29T10:33:08;5.40;;;0.28;;
57752;SDS011;43583;53.132;6.574;2022-12-29T10:35:40;9.90;;;1.85;;
57752;SDS011;43583;53.132;6.574;2022-12-29T10:38:13;3.33;;;0.20;;
57752;SDS011;43583;53.132;6.574;2022-12-29T10:43:33;7.85;;;0.20;;
57752;SDS011;43583;53.132;6.574;2022-12-29T10:46:25;8.13;;;0.30;;
57752;SDS011;43583;53.132;6.574;2022-12-29T10:48:57;7.00;;;0.88;;
57752;SDS011;43583;53.132;6.574;2022-12-29T10:54:33;6.82;;;0.30;;
57752;SDS011;43583;53.132;6.574;2022-12-29T10:56:40;3.22;;;0.30;;
57752;SDS011;43583;53.132;6.574;2022-12-29T10:59:30;12.07;;;1.55;;
57752;SDS011;43583;53.132;6.574;2022-12-29T11:04:40;5.20;;;0.22;;
57752;SDS011;43583;53.132;6.574;2022-12-29T11:07:17;9.70;;;0.40;;
57752;SDS011;43583;53.132;6.574;2022-12-29T11:09:44;9.65;;;1.55;;
57752;SDS011;43583;53.132;6.574;2022-12-29T11:17:47;10.98;;;0.77;;
57752;SDS011;43583;53.132;6.574;2022-12-29T11:20:34;7.50;;;1.15;;
57752;SDS011;43583;53.132;6.574;2022-12-29T11:28:38;11.30;;;0.98;;
57752;SDS011;43583;53.132;6.574;2022-12-29T11:31:05;10.82;;;0.70;;
57752;SDS011;43583;53.132;6.574;2022-12-29T11:33:32;15.40;;;0.85;;
57752;SDS011;43583;53.132;6.574;2022-12-29T11:36:04;9.23;;;1.10;;
57752;SDS011;43583;53.132;6.574;2022-12-29T11:38:40;13.55;;;1.10;;
57752;SDS011;43583;53.132;6.574;2022-12-29T11:41:18;11.02;;;0.80;;
57752;SDS011;43583;53.132;6.574;2022-12-29T11:43:47;10.95;;;0.55;;
57752;SDS011;43583;53.132;6.574;2022-12-29T11:46:14;16.40;;;2.15;;
57752;SDS011;43583;53.132;6.574;2022-12-29T11:48:43;14.85;;;1.00;;
57752;SDS011;43583;53.132;6.574;2022-12-29T11:51:12;8.68;;;1.00;;
57752;SDS011;43583;53.132;6.574;2022-12-29T11:53:47;14.10;;;0.98;;
57752;SDS011;43583;53.132;6.574;2022-12-29T11:56:17;14.27;;;0.90;;
57752;SDS011;43583;53.132;6.574;2022-12-29T11:58:47;16.25;;;0.85;;
57752;SDS011;43583;53.132;6.574;2022-12-29T12:01:17;14.32;;;1.55;;
57752;SDS011;43583;53.132;6.574;2022-12-29T12:04:34;15.02;;;0.80;;
57752;SDS011;43583;53.132;6.574;2022-12-29T12:06:49;16.10;;;2.15;;
57752;SDS011;43583;53.132;6.574;2022-12-29T12:10:10;13.65;;;1.25;;
57752;SDS011;43583;53.132;6.574;2022-12-29T12:12:23;7.03;;;1.08;;
57752;SDS011;43583;53.132;6.574;2022-12-29T12:14:56;4.15;;;0.63;;
57752;SDS011;43583;53.132;6.574;2022-12-29T12:17:29;9.20;;;0.70;;
57752;SDS011;43583;53.132;6.574;2022-12-29T12:20:04;12.27;;;1.00;;
57752;SDS011;43583;53.132;6.574;2022-12-29T12:23:12;14.35;;;1.58;;
57752;SDS011;43583;53.132;6.574;2022-12-29T12:26:02;9.85;;;1.17;;
57752;SDS011;43583;53.132;6.574;2022-12-29T12:28:49;6.93;;;1.33;;
57752;SDS011;43583;53.132;6.574;2022-12-29T12:33:59;9.63;;;1.30;;
57752;SDS011;43583;53.132;6.574;2022-12-29T12:42:44;11.15;;;1.02;;
57752;SDS011;43583;53.132;6.574;2022-12-29T12:54:00;8.45;;;0.70;;
57752;SDS011;43583;53.132;6.574;2022-12-29T12:59:33;7.97;;;0.40;;
57752;SDS011;43583;53.132;6.574;2022-12-29T13:04:48;8.95;;;0.65;;
57752;SDS011;43583;53.132;6.574;2022-12-29T13:10:50;24.58;;;1.67;;
57752;SDS011;43583;53.132;6.574;2022-12-29T13:30:32;4.38;;;0.28;;
57752;SDS011;43583;53.132;6.574;2022-12-29T13:33:11;3.97;;;0.95;;
57752;SDS011;43583;53.132;6.574;2022-12-29T13:38:18;12.35;;;0.50;;
57752;SDS011;43583;53.132;6.574;2022-12-29T13:40:55;4.93;;;0.17;;
57752;SDS011;43583;53.132;6.574;2022-12-29T13:43:28;7.03;;;0.22;;
57752;SDS011;43583;53.132;6.574;2022-12-29T13:46:02;3.38;;;0.20;;
57752;SDS011;43583;53.132;6.574;2022-12-29T13:48:37;5.00;;;0.30;;
57752;SDS011;43583;53.132;6.574;2022-12-29T13:51:06;7.25;;;0.60;;
57752;SDS011;43583;53.132;6.574;2022-12-29T14:02:19;8.18;;;0.38;;
57752;SDS011;43583;53.132;6.574;2022-12-29T14:05:03;1.50;;;0.20;;
57752;SDS011;43583;53.132;6.574;2022-12-29T14:07:35;9.27;;;1.30;;
57752;SDS011;43583;53.132;6.574;2022-12-29T14:10:03;9.35;;;1.05;;
57752;SDS011;43583;53.132;6.574;2022-12-29T14:12:31;7.00;;;1.67;;
57752;SDS011;43583;53.132;6.574;2022-12-29T14:17:33;5.72;;;0.20;;
57752;SDS011;43583;53.132;6.574;2022-12-29T14:19:59;7.22;;;0.75;;
57752;SDS011;43583;53.132;6.574;2022-12-29T14:22:25;6.10;;;0.20;;
57752;SDS011;43583;53.132;6.574;2022-12-29T14:24:52;4.85;;;0.50;;
57752;SDS011;43583;53.132;6.574;2022-12-29T14:29:50;9.02;;;0.55;;
57752;SDS011;43583;53.132;6.574;2022-12-29T14:34:55;9.30;;;0.47;;
57752;SDS011;43583;53.132;6.574;2022-12-29T14:40:46;5.35;;;0.52;;
57752;SDS011;43583;53.132;6.574;2022-12-29T14:42:51;5.28;;;0.30;;
57752;SDS011;43583;53.132;6.574;2022-12-29T14:45:26;5.13;;;0.25;;
57752;SDS011;43583;53.132;6.574;2022-12-29T14:47:53;5.75;;;0.50;;
57752;SDS011;43583;53.132;6.574;2022-12-29T14:50:24;5.20;;;0.30;;
57752;SDS011;43583;53.132;6.574;2022-12-29T15:00:56;14.52;;;1.83;;
57752;SDS011;43583;53.132;6.574;2022-12-29T15:03:24;7.20;;;0.52;;
57752;SDS011;43583;53.132;6.574;2022-12-29T15:05:58;5.38;;;0.47;;
57752;SDS011;43583;53.132;6.574;2022-12-29T15:08:32;13.80;;;1.67;;
57752;SDS011;43583;53.132;6.574;2022-12-29T15:11:13;9.25;;;0.63;;
57752;SDS011;43583;53.132;6.574;2022-12-29T15:13:44;8.93;;;0.40;;
57752;SDS011;43583;53.132;6.574;2022-12-29T15:18:58;6.22;;;0.47;;
57752;SDS011;43583;53.132;6.574;2022-12-29T15:21:25;4.60;;;0.40;;
57752;SDS011;43583;53.132;6.574;2022-12-29T15:23:52;7.22;;;0.65;;
57752;SDS011;43583;53.132;6.574;2022-12-29T15:26:18;7.60;;;0.80;;
57752;SDS011;43583;53.132;6.574;2022-12-29T15:28:51;7.93;;;0.50;;
57752;SDS011;43583;53.132;6.574;2022-12-29T15:31:21;7.78;;;0.77;;
57752;SDS011;43583;53.132;6.574;2022-12-29T15:33:50;13.70;;;0.50;;
57752;SDS011;43583;53.132;6.574;2022-12-29T15:36:24;9.15;;;0.57;;
57752;SDS011;43583;53.132;6.574;2022-12-29T15:38:51;9.80;;;0.35;;
57752;SDS011;43583;53.132;6.574;2022-12-29T15:41:25;3.80;;;0.32;;
57752;SDS011;43583;53.132;6.574;2022-12-29T15:44:34;5.28;;;0.20;;
57752;SDS011;43583;53.132;6.574;2022-12-29T15:47:14;9.70;;;1.10;;
57752;SDS011;43583;53.132;6.574;2022-12-29T15:49:43;6.38;;;1.15;;
57752;SDS011;43583;53.132;6.574;2022-12-29T15:52:13;7.13;;;0.25;;
57752;SDS011;43583;53.132;6.574;2022-12-29T15:54:44;5.07;;;0.47;;
57752;SDS011;43583;53.132;6.574;2022-12-29T15:57:22;11.57;;;1.10;;
57752;SDS011;43583;53.132;6.574;2022-12-29T15:59:52;5.47;;;0.40;;
57752;SDS011;43583;53.132;6.574;2022-12-29T16:02:18;4.82;;;0.43;;
57752;SDS011;43583;53.132;6.574;2022-12-29T16:04:45;6.65;;;0.65;;
57752;SDS011;43583;53.132;6.574;2022-12-29T16:07:32;9.30;;;0.95;;
57752;SDS011;43583;53.132;6.574;2022-12-29T16:09:59;6.70;;;0.70;;
57752;SDS011;43583;53.132;6.574;2022-12-29T16:12:30;8.77;;;0.50;;
57752;SDS011;43583;53.132;6.574;2022-12-29T16:14:58;6.85;;;0.60;;
57752;SDS011;43583;53.132;6.574;2022-12-29T16:17:27;8.63;;;1.48;;
57752;SDS011;43583;53.132;6.574;2022-12-29T16:19:56;9.20;;;0.40;;
57752;SDS011;43583;53.132;6.574;2022-12-29T16:22:28;5.18;;;0.65;;
57752;SDS011;43583;53.132;6.574;2022-12-29T16:27:49;5.53;;;0.30;;
57752;SDS011;43583;53.132;6.574;2022-12-29T16:32:47;5.22;;;0.45;;
57752;SDS011;43583;53.132;6.574;2022-12-29T16:37:45;5.22;;;0.20;;
57752;SDS011;43583;53.132;6.574;2022-12-29T16:42:48;0.77;;;0.10;;
57752;SDS011;43583;53.132;6.574;2022-12-29T16:50:29;1.55;;;0.03;;
57752;SDS011;43583;53.132;6.574;2022-12-29T16:52:55;1.35;;;0.10;;
57752;SDS011;43583;53.132;6.574;2022-12-29T16:55:21;4.95;;;0.10;;
57752;SDS011;43583;53.132;6.574;2022-12-29T16:57:47;4.32;;;0.63;;
57752;SDS011;43583;53.132;6.574;2022-12-29T17:00:27;1.27;;;0.20;;
57752;SDS011;43583;53.132;6.574;2022-12-29T17:02:59;1.65;;;0.10;;
57752;SDS011;43583;53.132;6.574;2022-12-29T17:05:26;4.55;;;0.10;;
57752;SDS011;43583;53.132;6.574;2022-12-29T17:07:51;2.47;;;0.10;;
57752;SDS011;43583;53.132;6.574;2022-12-29T17:10:17;2.70;;;0.30;;
57752;SDS011;43583;53.132;6.574;2022-12-29T17:12:44;4.22;;;0.17;;
57752;SDS011;43583;53.132;6.574;2022-12-29T17:15:14;5.85;;;0.20;;
57752;SDS011;43583;53.132;6.574;2022-12-29T17:17:46;3.22;;;0.20;;
57752;SDS011;43583;53.132;6.574;2022-12-29T17:20:21;7.32;;;0.25;;
57752;SDS011;43583;53.132;6.574;2022-12-29T17:22:48;8.07;;;1.65;;
57752;SDS011;43583;53.132;6.574;2022-12-29T17:25:19;3.05;;;0.95;;
57752;SDS011;43583;53.132;6.574;2022-12-29T17:27:57;7.30;;;0.73;;
57752;SDS011;43583;53.132;6.574;2022-12-29T17:30:25;4.63;;;0.70;;
57752;SDS011;43583;53.132;6.574;2022-12-29T17:32:57;4.82;;;0.40;;
57752;SDS011;43583;53.132;6.574;2022-12-29T17:35:30;7.63;;;1.00;;
57752;SDS011;43583;53.132;6.574;2022-12-29T17:37:55;4.45;;;0.28;;
57752;SDS011;43583;53.132;6.574;2022-12-29T17:40:25;8.65;;;0.47;;